createdAt,value
2022-10-13T09:35:07.843Z,101502.44
2022-10-13T09:37:38.643Z,101503.56
2022-10-13T09:44:30.758Z,101495.88
2022-10-13T09:47:01.334Z,101500.94
2022-10-13T09:49:40.907Z,101500.72
2022-10-13T09:52:17.680Z,101495.06
2022-10-13T09:54:47.504Z,101488.41
2022-10-13T09:57:21.367Z,101487.31
2022-10-13T09:59:54.877Z,101485.81
2022-10-13T10:02:37.011Z,101491.72
2022-10-13T10:05:46.309Z,101493.47
2022-10-13T10:08:58.071Z,101484.22
2022-10-13T10:11:45.034Z,101490.13
2022-10-13T10:14:25.832Z,101489.63
2022-10-13T10:17:23.127Z,101491.88
2022-10-13T10:20:00.094Z,101485.94
2022-10-13T10:22:31.025Z,101473.78
2022-10-13T10:25:22.278Z,101477.84
2022-10-13T10:28:13.348Z,101468.09
2022-10-13T10:30:51.628Z,101476.94
2022-10-13T10:34:10.167Z,101460.66
2022-10-13T10:36:42.080Z,101465.69
2022-10-13T10:39:37.171Z,101466.19
2022-10-13T10:42:26.001Z,101458.06
2022-10-13T10:44:54.688Z,101457.00
2022-10-13T10:47:28.413Z,101454.44
2022-10-13T10:50:05.709Z,101459.84
2022-10-13T10:52:37.412Z,101450.88
2022-10-13T10:55:22.536Z,101454.59
2022-10-13T10:57:52.431Z,101455.22
2022-10-13T11:00:22.503Z,101455.53
2022-10-13T11:02:52.409Z,101455.25
2022-10-13T11:05:20.048Z,101455.31
2022-10-13T11:07:47.363Z,101449.59
2022-10-13T11:10:16.506Z,101456.84
2022-10-13T11:12:50.977Z,101451.59
2022-10-13T11:15:27.538Z,101456.16
2022-10-13T11:17:55.993Z,101439.69
2022-10-13T11:20:28.669Z,101434.16
2022-10-13T11:23:00.344Z,101435.41
2022-10-13T11:25:44.761Z,101437.84
2022-10-13T11:28:21.859Z,101429.63
2022-10-13T11:30:57.529Z,101441.81
2022-10-13T11:33:39.920Z,101443.06
2022-10-13T11:36:31.431Z,101433.88
2022-10-13T11:39:10.196Z,101439.38
2022-10-13T11:41:47.878Z,101431.63
2022-10-13T11:44:22.368Z,101438.25
2022-10-13T11:47:04.528Z,101447.06
2022-10-13T11:49:58.606Z,101443.88
2022-10-13T11:52:48.687Z,101441.03
2022-10-13T11:55:27.265Z,101437.56
2022-10-13T11:58:08.915Z,101433.44
2022-10-13T12:00:36.164Z,101433.41
2022-10-13T12:03:03.510Z,101424.06
2022-10-13T12:05:33.976Z,101432.25
2022-10-13T12:08:04.050Z,101436.28
2022-10-13T12:10:36.321Z,101434.16
2022-10-13T12:13:05.367Z,101431.84
2022-10-13T12:15:45.971Z,101435.34
2022-10-13T12:21:31.014Z,101439.41
2022-10-13T12:24:09.814Z,101431.50
2022-10-13T12:26:37.565Z,101431.22
2022-10-13T12:29:11.633Z,101439.63
2022-10-13T12:31:38.779Z,101430.25
2022-10-13T12:34:18.119Z,101427.03
2022-10-13T12:36:50.704Z,101424.06
2022-10-13T12:39:20.958Z,101423.50
2022-10-13T12:41:56.022Z,101419.06
2022-10-13T12:44:28.645Z,101424.84
2022-10-13T12:46:59.148Z,101427.88
2022-10-13T12:49:30.752Z,101422.81
2022-10-13T12:52:10.012Z,101427.50
2022-10-13T12:54:39.447Z,101429.13
2022-10-13T12:57:20.590Z,101423.44
2022-10-13T12:59:48.066Z,101430.56
2022-10-13T13:02:34.623Z,101420.91
2022-10-13T13:05:02.070Z,101430.72
2022-10-13T13:07:35.428Z,101416.34
2022-10-13T13:10:07.947Z,101429.41
2022-10-13T13:12:36.995Z,101417.34
2022-10-13T13:15:18.794Z,101420.44
2022-10-13T13:17:57.821Z,101420.53
2022-10-13T13:20:27.412Z,101415.25
2022-10-13T13:22:55.061Z,101420.53
2022-10-13T13:25:22.793Z,101418.81
2022-10-13T13:27:50.330Z,101420.03
2022-10-13T13:30:20.076Z,101422.00
2022-10-13T13:32:49.684Z,101417.16
2022-10-13T13:35:17.268Z,101418.66
2022-10-13T13:37:48.226Z,101414.06
2022-10-13T13:40:19.892Z,101416.78
2022-10-13T13:42:47.893Z,101413.09
2022-10-13T13:45:17.530Z,101420.22
2022-10-13T13:47:47.364Z,101422.31
2022-10-13T13:50:22.529Z,101417.66
2022-10-13T13:52:53.740Z,101426.09
2022-10-13T13:55:30.019Z,101416.22
2022-10-13T13:57:57.822Z,101417.81
2022-10-13T14:00:25.143Z,101427.69
2022-10-13T14:02:52.583Z,101425.72
2022-10-13T14:05:19.837Z,101420.31
2022-10-13T14:07:47.195Z,101424.72
2022-10-13T14:10:15.314Z,101422.97
2022-10-13T14:12:44.070Z,101423.09
2022-10-13T14:15:15.873Z,101426.53
2022-10-13T14:17:43.051Z,101421.69
2022-10-13T14:20:11.977Z,101421.44
2022-10-13T14:22:40.061Z,101429.00
2022-10-13T14:25:07.919Z,101427.16
2022-10-13T14:27:36.665Z,101427.72
2022-10-13T14:30:05.470Z,101428.94
2022-10-13T14:32:36.406Z,101426.81
2022-10-13T14:35:04.748Z,101427.28
2022-10-13T14:37:33.784Z,101428.84
2022-10-13T14:40:01.477Z,101427.78
2022-10-13T14:42:28.837Z,101435.50
2022-10-13T14:44:56.103Z,101438.78
2022-10-13T14:47:23.830Z,101435.00
2022-10-13T14:49:51.205Z,101439.38
2022-10-13T14:52:18.745Z,101441.91
2022-10-13T14:54:46.046Z,101438.00
2022-10-13T14:57:16.164Z,101450.25
2022-10-13T14:59:44.244Z,101442.84
2022-10-13T15:02:13.068Z,101450.63
2022-10-13T15:04:40.371Z,101447.63
2022-10-13T15:07:08.513Z,101449.91
2022-10-13T15:09:52.000Z,101453.88
2022-10-13T15:12:21.081Z,101452.59
2022-10-13T15:14:49.977Z,101454.19
2022-10-13T15:17:17.203Z,101459.91
2022-10-13T15:19:45.417Z,101456.78
2022-10-13T15:22:12.697Z,101451.13
2022-10-13T15:24:43.411Z,101456.19
2022-10-13T15:27:10.700Z,101447.88
2022-10-13T15:29:38.203Z,101450.78
2022-10-13T15:32:17.757Z,101454.44
2022-10-13T15:34:45.157Z,101454.00
2022-10-13T15:37:13.335Z,101453.53
2022-10-13T15:40:02.133Z,101456.75
2022-10-13T15:42:32.147Z,101460.72
2022-10-13T15:45:15.295Z,101462.75
2022-10-13T15:47:46.394Z,101464.97
2022-10-13T15:50:15.074Z,101463.69
2022-10-13T15:55:31.788Z,101471.44
2022-10-13T15:58:02.336Z,101466.47
2022-10-13T16:00:30.050Z,101472.03
2022-10-13T16:02:57.491Z,101469.75
2022-10-13T16:05:24.807Z,101467.25
2022-10-13T16:07:52.781Z,101472.06
2022-10-13T16:10:23.715Z,101463.50
2022-10-13T16:12:53.117Z,101479.88
2022-10-13T16:15:22.157Z,101474.56
2022-10-13T16:17:52.257Z,101476.69
2022-10-13T16:20:20.099Z,101482.09
2022-10-13T16:22:49.523Z,101478.53
2022-10-13T16:25:17.185Z,101476.03
2022-10-13T16:27:44.873Z,101484.50
2022-10-13T16:30:13.497Z,101480.28
2022-10-13T16:32:40.761Z,101479.41
2022-10-13T16:35:08.227Z,101478.91
2022-10-13T16:37:35.438Z,101474.88
2022-10-13T16:40:04.977Z,101480.81
2022-10-13T16:42:34.289Z,101478.59
2022-10-13T16:45:03.793Z,101478.81
2022-10-13T16:47:31.070Z,101479.00
2022-10-13T16:49:58.679Z,101480.25
2022-10-13T16:52:26.003Z,101491.25
2022-10-13T16:54:53.212Z,101480.78
2022-10-13T16:57:20.795Z,101489.06
2022-10-13T16:59:48.261Z,101485.69
2022-10-13T17:02:15.868Z,101486.88
2022-10-13T17:04:43.441Z,101493.44
2022-10-13T17:07:10.769Z,101493.69
2022-10-13T17:09:38.408Z,101496.56
2022-10-13T17:12:08.042Z,101489.53
2022-10-13T17:14:36.343Z,101494.22
2022-10-13T17:17:08.583Z,101496.84
2022-10-13T17:19:36.450Z,101499.59
2022-10-13T17:22:03.759Z,101501.53
2022-10-13T17:24:31.282Z,101496.34
2022-10-13T17:26:58.521Z,101506.31
2022-10-13T17:29:29.636Z,101498.31
2022-10-13T17:31:59.487Z,101505.63
2022-10-13T17:34:27.525Z,101499.47
2022-10-13T17:36:55.218Z,101501.47
2022-10-13T17:39:37.589Z,101503.53
2022-10-13T17:42:34.393Z,101501.69
2022-10-13T17:45:04.298Z,101502.75
2022-10-13T17:47:35.570Z,101494.06
2022-10-13T17:50:04.520Z,101499.66
2022-10-13T17:52:34.509Z,101501.47
2022-10-13T17:55:01.763Z,101507.50
2022-10-13T17:57:36.236Z,101505.97
2022-10-13T18:00:07.429Z,101498.16
2022-10-13T18:02:37.645Z,101512.72
2022-10-13T18:05:05.167Z,101513.94
2022-10-13T18:07:32.478Z,101514.13
2022-10-13T18:10:01.277Z,101506.25
2022-10-13T18:12:30.463Z,101503.03
2022-10-13T18:14:57.921Z,101510.59
2022-10-13T18:17:27.404Z,101509.19
2022-10-13T18:19:57.961Z,101511.31
2022-10-13T18:22:25.201Z,101510.63
2022-10-13T18:24:56.931Z,101514.69
2022-10-13T18:27:24.642Z,101511.38
2022-10-13T18:29:51.844Z,101510.94
2022-10-13T18:32:19.069Z,101508.91
2022-10-13T18:34:47.775Z,101514.38
2022-10-13T18:37:15.417Z,101522.75
2022-10-13T18:39:44.983Z,101512.34
2022-10-13T18:42:12.851Z,101513.78
2022-10-13T18:44:40.042Z,101505.09
2022-10-13T18:47:09.401Z,101512.28
2022-10-13T18:49:38.383Z,101508.97
2022-10-13T18:52:07.932Z,101502.19
2022-10-13T18:54:40.936Z,101511.34
2022-10-13T18:57:08.109Z,101511.69
2022-10-13T18:59:38.713Z,101504.72
2022-10-13T19:02:06.085Z,101508.59
2022-10-13T19:04:35.352Z,101505.34
2022-10-13T19:07:03.765Z,101512.84
2022-10-13T19:09:31.040Z,101514.16
2022-10-13T19:11:58.504Z,101522.59
2022-10-13T19:14:27.327Z,101517.50
2022-10-13T19:16:57.140Z,101519.00
2022-10-13T19:19:28.319Z,101528.94
2022-10-13T19:21:56.051Z,101521.28
2022-10-13T19:24:23.449Z,101531.28
2022-10-13T19:26:51.845Z,101518.28
2022-10-13T19:29:19.235Z,101524.94
2022-10-13T19:31:48.338Z,101529.66
2022-10-13T19:34:17.679Z,101526.84
2022-10-13T19:36:46.475Z,101531.09
2022-10-13T19:39:17.605Z,101526.69
2022-10-13T19:41:46.544Z,101527.56
2022-10-13T19:44:14.532Z,101529.28
2022-10-13T19:46:43.421Z,101531.09
2022-10-13T19:49:16.003Z,101524.75
2022-10-13T19:51:46.884Z,101529.06
2022-10-13T19:54:14.392Z,101528.84
2022-10-13T19:56:43.485Z,101526.78
2022-10-13T19:59:14.459Z,101532.72
2022-10-13T20:01:46.633Z,101529.81
2022-10-13T20:04:17.940Z,101536.66
2022-10-13T20:06:51.671Z,101527.66
2022-10-13T20:09:23.004Z,101533.09
2022-10-13T20:11:52.893Z,101533.22
2022-10-13T20:14:21.342Z,101532.50
2022-10-13T20:17:00.687Z,101524.91
2022-10-13T20:19:28.740Z,101525.50
2022-10-13T20:21:56.461Z,101521.56
2022-10-13T20:24:23.863Z,101528.22
2022-10-13T20:26:51.269Z,101525.91
2022-10-13T20:29:23.183Z,101527.94
2022-10-13T20:31:50.731Z,101527.28
2022-10-13T20:34:18.147Z,101527.28
2022-10-13T20:36:45.351Z,101530.25
2022-10-13T20:39:16.753Z,101534.75
2022-10-13T20:41:44.041Z,101532.28
2022-10-13T20:44:11.398Z,101532.53
2022-10-13T20:46:38.597Z,101526.41
2022-10-13T20:49:11.806Z,101514.75
2022-10-13T20:51:44.600Z,101518.53
2022-10-13T20:54:13.562Z,101526.84
2022-10-13T20:56:41.281Z,101521.84
2022-10-13T20:59:14.802Z,101518.31
2022-10-13T21:01:42.826Z,101522.97
2022-10-13T21:04:16.408Z,101517.78
2022-10-13T21:06:44.102Z,101523.13
2022-10-13T21:09:14.200Z,101517.69
2022-10-13T21:11:41.476Z,101516.63
2022-10-13T21:14:10.518Z,101518.31
2022-10-13T21:16:38.388Z,101513.72
2022-10-13T21:19:10.183Z,101514.53
2022-10-13T21:21:38.266Z,101519.94
2022-10-13T21:24:10.230Z,101526.16
2022-10-13T21:26:40.913Z,101518.31
2022-10-13T21:29:11.568Z,101514.16
2022-10-13T21:31:39.493Z,101517.09
2022-10-13T21:34:08.354Z,101520.84
2022-10-13T21:36:44.709Z,101507.69
2022-10-13T21:39:15.755Z,101504.09
2022-10-13T21:41:43.519Z,101514.78
2022-10-13T21:44:15.755Z,101511.25
2022-10-13T21:46:43.864Z,101515.13
2022-10-13T21:49:11.977Z,101515.47
2022-10-13T21:51:40.369Z,101519.22
2022-10-13T21:54:12.408Z,101517.59
2022-10-13T21:56:40.919Z,101509.59
2022-10-13T21:59:10.163Z,101520.41
2022-10-13T22:01:38.635Z,101522.50
2022-10-13T22:04:06.721Z,101528.25
2022-10-13T22:06:34.484Z,101516.00
2022-10-13T22:09:04.178Z,101530.22
2022-10-13T22:11:33.993Z,101528.56
2022-10-13T22:14:01.827Z,101526.09
2022-10-13T22:16:32.963Z,101526.97
2022-10-13T22:19:03.600Z,101525.94
2022-10-13T22:21:34.264Z,101524.84
2022-10-13T22:24:04.504Z,101524.00
2022-10-13T22:26:36.555Z,101525.91
2022-10-13T22:29:05.862Z,101525.94
2022-10-13T22:31:35.428Z,101526.03
2022-10-13T22:34:03.314Z,101537.97
2022-10-13T22:36:33.824Z,101533.03
2022-10-13T22:39:04.021Z,101534.19
2022-10-13T22:41:32.963Z,101530.72
2022-10-13T22:44:01.852Z,101529.91
2022-10-13T22:46:35.112Z,101538.00
2022-10-13T22:49:03.138Z,101531.78
2022-10-13T22:51:33.352Z,101534.75
2022-10-13T22:54:04.077Z,101532.50
2022-10-13T22:56:33.715Z,101525.16
2022-10-13T22:59:06.138Z,101532.09
2022-10-13T23:01:34.349Z,101533.63
2022-10-13T23:04:01.770Z,101535.44
2022-10-13T23:06:31.416Z,101533.72
2022-10-13T23:09:03.909Z,101530.09
2022-10-13T23:11:31.743Z,101528.28
2022-10-13T23:14:04.767Z,101530.09
2022-10-13T23:16:33.240Z,101523.69
2022-10-13T23:19:00.515Z,101528.97
2022-10-13T23:21:29.843Z,101523.69
2022-10-13T23:23:59.467Z,101519.34
2022-10-13T23:26:27.543Z,101517.81
2022-10-13T23:28:55.905Z,101524.34
2022-10-13T23:31:24.022Z,101523.88
2022-10-13T23:33:51.700Z,101524.06
2022-10-13T23:36:22.649Z,101530.53
2022-10-13T23:39:10.541Z,101527.19
2022-10-13T23:41:38.450Z,101529.13
2022-10-13T23:44:06.266Z,101528.28
2022-10-13T23:46:33.588Z,101533.75
2022-10-13T23:49:01.017Z,101528.56
2022-10-13T23:51:28.548Z,101527.81
2022-10-13T23:53:56.336Z,101524.22
2022-10-13T23:56:26.473Z,101524.13
2022-10-13T23:58:53.973Z,101522.34
